Gorzow Wlkp, Poland
Current Conditions -  °F | °C
As of 11:00 PM on Thursday 20 Nov 2014 (Local Time) from EPZG Reporting Station
Haze Haze  
Wind Chill: 39°   Ceiling: 600
Heat Index: 39°   Visibility: 1.6mi
Dew Point: 39°   Wind: 2mph
Humidity: 100%   Direction: NA
Pressure: 30.33"   Gusts: NA
Location:  52.75°N, 15.28°E
Report Text: EPZG 202100Z VRB02KT 2700 BR SCT003 BKN006 OVC009 04/04 Q1027
Loading
Personal Weather Stations






























Interactive Weather Map New forecast layout! Learn more

10-Day Weather Forecast

Advertisements
Track Severe Weather on mobile